sensor_id;sensor_type;location;lat;lon;timestamp;P1;durP1;ratioP1;P2;durP2;ratioP2
41755;SDS011;27435;48.480;9.258;2023-11-22T00:01:47;30.87;;;13.33;;
41755;SDS011;27435;48.480;9.258;2023-11-22T00:04:16;26.60;;;12.13;;
41755;SDS011;27435;48.480;9.258;2023-11-22T00:06:43;30.67;;;12.77;;
41755;SDS011;27435;48.480;9.258;2023-11-22T00:09:08;32.83;;;12.93;;
41755;SDS011;27435;48.480;9.258;2023-11-22T00:11:34;32.70;;;13.93;;
41755;SDS011;27435;48.480;9.258;2023-11-22T00:14:00;34.77;;;14.17;;
41755;SDS011;27435;48.480;9.258;2023-11-22T00:16:26;25.90;;;11.87;;
41755;SDS011;27435;48.480;9.258;2023-11-22T00:18:52;29.40;;;14.70;;
41755;SDS011;27435;48.480;9.258;2023-11-22T00:21:18;33.80;;;14.13;;
41755;SDS011;27435;48.480;9.258;2023-11-22T00:23:45;24.50;;;12.53;;
41755;SDS011;27435;48.480;9.258;2023-11-22T00:26:11;32.57;;;13.43;;
41755;SDS011;27435;48.480;9.258;2023-11-22T00:28:37;29.33;;;13.30;;
41755;SDS011;27435;48.480;9.258;2023-11-22T00:31:03;32.43;;;13.43;;
41755;SDS011;27435;48.480;9.258;2023-11-22T00:33:28;31.67;;;14.07;;
41755;SDS011;27435;48.480;9.258;2023-11-22T00:35:56;27.53;;;13.17;;
41755;SDS011;27435;48.480;9.258;2023-11-22T00:38:23;32.17;;;13.40;;
41755;SDS011;27435;48.480;9.258;2023-11-22T00:40:49;31.37;;;14.93;;
41755;SDS011;27435;48.480;9.258;2023-11-22T00:43:15;36.97;;;13.90;;
41755;SDS011;27435;48.480;9.258;2023-11-22T00:45:41;29.43;;;14.90;;
41755;SDS011;27435;48.480;9.258;2023-11-22T00:48:06;29.77;;;12.73;;
41755;SDS011;27435;48.480;9.258;2023-11-22T00:50:32;33.73;;;15.40;;
41755;SDS011;27435;48.480;9.258;2023-11-22T00:52:58;35.07;;;15.47;;
41755;SDS011;27435;48.480;9.258;2023-11-22T00:55:24;36.60;;;16.70;;
41755;SDS011;27435;48.480;9.258;2023-11-22T00:57:49;33.43;;;15.20;;
41755;SDS011;27435;48.480;9.258;2023-11-22T01:00:15;33.47;;;14.60;;
41755;SDS011;27435;48.480;9.258;2023-11-22T01:02:41;35.17;;;14.83;;
41755;SDS011;27435;48.480;9.258;2023-11-22T01:05:07;39.17;;;15.37;;
41755;SDS011;27435;48.480;9.258;2023-11-22T01:07:37;33.20;;;15.17;;
41755;SDS011;27435;48.480;9.258;2023-11-22T01:10:03;34.30;;;14.67;;
41755;SDS011;27435;48.480;9.258;2023-11-22T01:12:30;36.57;;;15.37;;
41755;SDS011;27435;48.480;9.258;2023-11-22T01:14:56;34.33;;;15.53;;
41755;SDS011;27435;48.480;9.258;2023-11-22T01:17:22;35.77;;;15.63;;
41755;SDS011;27435;48.480;9.258;2023-11-22T01:19:49;41.90;;;16.13;;
41755;SDS011;27435;48.480;9.258;2023-11-22T01:22:15;39.97;;;14.83;;
41755;SDS011;27435;48.480;9.258;2023-11-22T01:24:42;34.70;;;15.83;;
41755;SDS011;27435;48.480;9.258;2023-11-22T01:27:08;30.47;;;13.10;;
41755;SDS011;27435;48.480;9.258;2023-11-22T01:29:33;28.67;;;12.33;;
41755;SDS011;27435;48.480;9.258;2023-11-22T01:31:59;12.47;;;6.30;;
41755;SDS011;27435;48.480;9.258;2023-11-22T01:34:25;7.63;;;3.93;;
41755;SDS011;27435;48.480;9.258;2023-11-22T01:36:51;6.67;;;3.93;;
41755;SDS011;27435;48.480;9.258;2023-11-22T01:39:17;8.67;;;4.43;;
41755;SDS011;27435;48.480;9.258;2023-11-22T01:41:46;8.07;;;4.40;;
41755;SDS011;27435;48.480;9.258;2023-11-22T01:44:14;7.37;;;4.70;;
41755;SDS011;27435;48.480;9.258;2023-11-22T01:46:40;6.97;;;4.57;;
41755;SDS011;27435;48.480;9.258;2023-11-22T01:49:08;8.60;;;4.70;;
41755;SDS011;27435;48.480;9.258;2023-11-22T01:51:35;8.30;;;4.93;;
41755;SDS011;27435;48.480;9.258;2023-11-22T01:54:02;7.50;;;4.77;;
41755;SDS011;27435;48.480;9.258;2023-11-22T01:56:28;8.83;;;5.40;;
41755;SDS011;27435;48.480;9.258;2023-11-22T01:58:54;8.67;;;5.77;;
41755;SDS011;27435;48.480;9.258;2023-11-22T02:01:21;8.43;;;5.53;;
41755;SDS011;27435;48.480;9.258;2023-11-22T02:03:47;11.10;;;6.90;;
41755;SDS011;27435;48.480;9.258;2023-11-22T02:06:15;9.63;;;6.67;;
41755;SDS011;27435;48.480;9.258;2023-11-22T02:08:43;13.37;;;8.33;;
41755;SDS011;27435;48.480;9.258;2023-11-22T02:11:09;12.93;;;7.90;;
41755;SDS011;27435;48.480;9.258;2023-11-22T02:13:35;12.07;;;7.63;;
41755;SDS011;27435;48.480;9.258;2023-11-22T02:16:02;12.83;;;7.07;;
41755;SDS011;27435;48.480;9.258;2023-11-22T02:18:28;10.30;;;5.73;;
41755;SDS011;27435;48.480;9.258;2023-11-22T02:20:54;10.60;;;5.93;;
41755;SDS011;27435;48.480;9.258;2023-11-22T02:23:20;10.77;;;6.33;;
41755;SDS011;27435;48.480;9.258;2023-11-22T02:25:45;9.77;;;6.20;;
41755;SDS011;27435;48.480;9.258;2023-11-22T02:28:11;9.23;;;5.47;;
41755;SDS011;27435;48.480;9.258;2023-11-22T02:30:37;8.63;;;5.37;;
41755;SDS011;27435;48.480;9.258;2023-11-22T02:33:03;10.87;;;5.63;;
41755;SDS011;27435;48.480;9.258;2023-11-22T02:35:32;12.63;;;5.80;;
41755;SDS011;27435;48.480;9.258;2023-11-22T02:37:58;10.27;;;5.90;;
41755;SDS011;27435;48.480;9.258;2023-11-22T02:40:24;12.07;;;7.20;;
41755;SDS011;27435;48.480;9.258;2023-11-22T02:42:50;12.57;;;7.33;;
41755;SDS011;27435;48.480;9.258;2023-11-22T02:45:19;13.30;;;7.20;;
41755;SDS011;27435;48.480;9.258;2023-11-22T02:47:48;13.70;;;7.10;;
41755;SDS011;27435;48.480;9.258;2023-11-22T02:50:14;12.90;;;7.63;;
41755;SDS011;27435;48.480;9.258;2023-11-22T02:52:41;12.97;;;7.10;;
41755;SDS011;27435;48.480;9.258;2023-11-22T02:55:07;17.50;;;7.73;;
41755;SDS011;27435;48.480;9.258;2023-11-22T02:57:34;14.00;;;7.60;;
41755;SDS011;27435;48.480;9.258;2023-11-22T03:00:01;13.60;;;8.27;;
41755;SDS011;27435;48.480;9.258;2023-11-22T03:02:29;16.67;;;8.03;;
41755;SDS011;27435;48.480;9.258;2023-11-22T03:04:54;16.77;;;8.90;;
41755;SDS011;27435;48.480;9.258;2023-11-22T03:07:20;19.30;;;9.27;;
41755;SDS011;27435;48.480;9.258;2023-11-22T03:09:46;19.40;;;9.03;;
41755;SDS011;27435;48.480;9.258;2023-11-22T03:12:12;15.97;;;9.10;;
41755;SDS011;27435;48.480;9.258;2023-11-22T03:14:40;19.27;;;9.63;;
41755;SDS011;27435;48.480;9.258;2023-11-22T03:17:06;18.90;;;9.47;;
41755;SDS011;27435;48.480;9.258;2023-11-22T03:19:31;17.33;;;9.80;;
41755;SDS011;27435;48.480;9.258;2023-11-22T03:21:59;14.47;;;7.77;;
41755;SDS011;27435;48.480;9.258;2023-11-22T03:24:28;15.03;;;8.93;;
41755;SDS011;27435;48.480;9.258;2023-11-22T03:26:55;15.00;;;8.83;;
41755;SDS011;27435;48.480;9.258;2023-11-22T03:29:23;15.10;;;8.50;;
41755;SDS011;27435;48.480;9.258;2023-11-22T03:31:52;14.47;;;8.53;;
41755;SDS011;27435;48.480;9.258;2023-11-22T03:34:19;14.00;;;7.83;;
41755;SDS011;27435;48.480;9.258;2023-11-22T03:36:45;14.63;;;8.80;;
41755;SDS011;27435;48.480;9.258;2023-11-22T03:39:10;17.87;;;8.37;;
41755;SDS011;27435;48.480;9.258;2023-11-22T03:41:36;17.13;;;8.53;;
41755;SDS011;27435;48.480;9.258;2023-11-22T03:44:05;19.23;;;9.00;;
41755;SDS011;27435;48.480;9.258;2023-11-22T03:46:34;20.13;;;9.23;;
41755;SDS011;27435;48.480;9.258;2023-11-22T03:49:01;20.23;;;9.63;;
41755;SDS011;27435;48.480;9.258;2023-11-22T03:51:31;16.87;;;8.53;;
41755;SDS011;27435;48.480;9.258;2023-11-22T03:53:58;19.67;;;9.57;;
41755;SDS011;27435;48.480;9.258;2023-11-22T03:56:24;18.57;;;8.60;;
41755;SDS011;27435;48.480;9.258;2023-11-22T03:58:50;17.90;;;9.30;;
41755;SDS011;27435;48.480;9.258;2023-11-22T04:01:15;16.60;;;8.57;;
41755;SDS011;27435;48.480;9.258;2023-11-22T04:03:41;15.40;;;9.03;;
41755;SDS011;27435;48.480;9.258;2023-11-22T04:06:07;19.50;;;9.40;;
41755;SDS011;27435;48.480;9.258;2023-11-22T04:08:33;16.00;;;9.13;;
41755;SDS011;27435;48.480;9.258;2023-11-22T04:10:58;18.80;;;10.10;;
41755;SDS011;27435;48.480;9.258;2023-11-22T04:13:24;19.70;;;9.90;;
41755;SDS011;27435;48.480;9.258;2023-11-22T04:15:50;14.83;;;7.63;;
41755;SDS011;27435;48.480;9.258;2023-11-22T04:18:16;19.80;;;10.47;;
41755;SDS011;27435;48.480;9.258;2023-11-22T04:20:41;19.30;;;10.20;;
41755;SDS011;27435;48.480;9.258;2023-11-22T04:23:07;21.03;;;10.77;;
41755;SDS011;27435;48.480;9.258;2023-11-22T04:25:36;20.60;;;9.50;;
41755;SDS011;27435;48.480;9.258;2023-11-22T04:28:02;19.87;;;9.30;;
41755;SDS011;27435;48.480;9.258;2023-11-22T04:30:28;18.43;;;9.93;;
41755;SDS011;27435;48.480;9.258;2023-11-22T04:32:54;19.53;;;9.90;;
41755;SDS011;27435;48.480;9.258;2023-11-22T04:35:19;18.77;;;9.83;;
41755;SDS011;27435;48.480;9.258;2023-11-22T04:37:45;18.23;;;8.10;;
41755;SDS011;27435;48.480;9.258;2023-11-22T04:40:11;17.33;;;8.40;;
41755;SDS011;27435;48.480;9.258;2023-11-22T04:42:39;16.20;;;7.43;;
41755;SDS011;27435;48.480;9.258;2023-11-22T04:45:05;13.93;;;7.03;;
41755;SDS011;27435;48.480;9.258;2023-11-22T04:47:31;14.83;;;7.10;;
41755;SDS011;27435;48.480;9.258;2023-11-22T04:49:57;15.20;;;6.77;;
41755;SDS011;27435;48.480;9.258;2023-11-22T04:52:23;14.53;;;7.63;;
41755;SDS011;27435;48.480;9.258;2023-11-22T04:54:48;15.77;;;7.63;;
41755;SDS011;27435;48.480;9.258;2023-11-22T04:57:14;13.83;;;7.20;;
41755;SDS011;27435;48.480;9.258;2023-11-22T04:59:40;15.87;;;8.03;;
41755;SDS011;27435;48.480;9.258;2023-11-22T05:02:06;15.73;;;7.50;;
41755;SDS011;27435;48.480;9.258;2023-11-22T05:04:32;13.13;;;7.00;;
41755;SDS011;27435;48.480;9.258;2023-11-22T05:06:58;17.73;;;8.10;;
41755;SDS011;27435;48.480;9.258;2023-11-22T05:09:23;14.30;;;8.33;;
41755;SDS011;27435;48.480;9.258;2023-11-22T05:11:49;18.20;;;8.90;;
41755;SDS011;27435;48.480;9.258;2023-11-22T05:14:17;21.70;;;9.63;;
41755;SDS011;27435;48.480;9.258;2023-11-22T05:16:42;14.57;;;7.67;;
41755;SDS011;27435;48.480;9.258;2023-11-22T05:19:09;21.27;;;9.50;;
41755;SDS011;27435;48.480;9.258;2023-11-22T05:21:35;17.43;;;7.87;;
41755;SDS011;27435;48.480;9.258;2023-11-22T05:24:01;16.00;;;8.33;;
41755;SDS011;27435;48.480;9.258;2023-11-22T05:26:26;18.70;;;8.27;;
41755;SDS011;27435;48.480;9.258;2023-11-22T05:28:52;19.40;;;9.30;;
41755;SDS011;27435;48.480;9.258;2023-11-22T05:31:19;16.93;;;9.03;;
41755;SDS011;27435;48.480;9.258;2023-11-22T05:33:45;20.33;;;9.30;;
41755;SDS011;27435;48.480;9.258;2023-11-22T05:36:11;16.93;;;8.13;;
41755;SDS011;27435;48.480;9.258;2023-11-22T05:38:37;17.67;;;8.53;;
41755;SDS011;27435;48.480;9.258;2023-11-22T05:41:03;19.27;;;8.27;;
41755;SDS011;27435;48.480;9.258;2023-11-22T05:43:28;19.03;;;9.27;;
41755;SDS011;27435;48.480;9.258;2023-11-22T05:45:54;19.17;;;9.30;;
41755;SDS011;27435;48.480;9.258;2023-11-22T05:48:20;19.13;;;8.60;;
41755;SDS011;27435;48.480;9.258;2023-11-22T05:50:46;19.00;;;8.93;;
41755;SDS011;27435;48.480;9.258;2023-11-22T05:53:13;25.23;;;9.80;;
41755;SDS011;27435;48.480;9.258;2023-11-22T05:55:44;21.10;;;9.63;;
41755;SDS011;27435;48.480;9.258;2023-11-22T05:58:12;19.87;;;9.57;;
41755;SDS011;27435;48.480;9.258;2023-11-22T06:00:41;18.43;;;8.57;;
41755;SDS011;27435;48.480;9.258;2023-11-22T06:03:08;18.37;;;8.53;;
41755;SDS011;27435;48.480;9.258;2023-11-22T06:05:34;20.13;;;9.33;;
41755;SDS011;27435;48.480;9.258;2023-11-22T06:08:00;17.57;;;8.37;;
41755;SDS011;27435;48.480;9.258;2023-11-22T06:10:26;17.37;;;9.00;;
41755;SDS011;27435;48.480;9.258;2023-11-22T06:12:51;20.47;;;9.00;;
41755;SDS011;27435;48.480;9.258;2023-11-22T06:15:17;15.77;;;8.27;;
41755;SDS011;27435;48.480;9.258;2023-11-22T06:17:45;13.93;;;7.83;;
41755;SDS011;27435;48.480;9.258;2023-11-22T06:20:12;17.00;;;8.43;;
41755;SDS011;27435;48.480;9.258;2023-11-22T06:22:38;15.50;;;7.67;;
41755;SDS011;27435;48.480;9.258;2023-11-22T06:25:07;16.53;;;8.13;;
41755;SDS011;27435;48.480;9.258;2023-11-22T06:27:36;14.00;;;6.13;;
41755;SDS011;27435;48.480;9.258;2023-11-22T06:30:02;17.60;;;8.87;;
41755;SDS011;27435;48.480;9.258;2023-11-22T06:32:28;14.83;;;7.17;;
41755;SDS011;27435;48.480;9.258;2023-11-22T06:34:54;16.27;;;7.57;;
41755;SDS011;27435;48.480;9.258;2023-11-22T06:37:19;14.47;;;6.80;;
41755;SDS011;27435;48.480;9.258;2023-11-22T06:39:46;13.53;;;7.37;;
41755;SDS011;27435;48.480;9.258;2023-11-22T06:42:11;12.80;;;6.30;;
41755;SDS011;27435;48.480;9.258;2023-11-22T06:44:38;16.40;;;7.50;;
41755;SDS011;27435;48.480;9.258;2023-11-22T06:47:05;16.87;;;7.60;;
41755;SDS011;27435;48.480;9.258;2023-11-22T06:49:32;16.43;;;7.57;;
41755;SDS011;27435;48.480;9.258;2023-11-22T06:51:58;11.77;;;6.67;;
41755;SDS011;27435;48.480;9.258;2023-11-22T06:54:23;16.67;;;6.80;;
41755;SDS011;27435;48.480;9.258;2023-11-22T06:56:49;13.83;;;6.50;;
41755;SDS011;27435;48.480;9.258;2023-11-22T06:59:16;14.20;;;6.53;;
41755;SDS011;27435;48.480;9.258;2023-11-22T07:01:42;18.27;;;7.80;;
41755;SDS011;27435;48.480;9.258;2023-11-22T07:04:08;14.83;;;6.60;;
41755;SDS011;27435;48.480;9.258;2023-11-22T07:06:33;13.93;;;6.70;;
41755;SDS011;27435;48.480;9.258;2023-11-22T07:09:01;15.43;;;6.87;;
41755;SDS011;27435;48.480;9.258;2023-11-22T07:11:26;15.23;;;7.07;;
41755;SDS011;27435;48.480;9.258;2023-11-22T07:13:55;13.83;;;7.03;;
41755;SDS011;27435;48.480;9.258;2023-11-22T07:16:22;14.00;;;6.77;;
41755;SDS011;27435;48.480;9.258;2023-11-22T07:18:49;16.57;;;8.33;;
41755;SDS011;27435;48.480;9.258;2023-11-22T07:21:15;23.63;;;11.20;;
41755;SDS011;27435;48.480;9.258;2023-11-22T07:23:42;15.17;;;8.07;;
41755;SDS011;27435;48.480;9.258;2023-11-22T07:26:10;14.60;;;7.50;;
41755;SDS011;27435;48.480;9.258;2023-11-22T07:28:35;17.60;;;7.93;;
41755;SDS011;27435;48.480;9.258;2023-11-22T07:31:02;13.50;;;6.97;;
41755;SDS011;27435;48.480;9.258;2023-11-22T07:33:31;16.27;;;8.13;;
41755;SDS011;27435;48.480;9.258;2023-11-22T07:35:57;17.97;;;10.43;;
41755;SDS011;27435;48.480;9.258;2023-11-22T07:38:23;14.73;;;7.17;;
41755;SDS011;27435;48.480;9.258;2023-11-22T07:40:49;15.37;;;6.83;;
41755;SDS011;27435;48.480;9.258;2023-11-22T07:43:16;14.77;;;7.13;;
41755;SDS011;27435;48.480;9.258;2023-11-22T07:45:42;15.83;;;8.73;;
41755;SDS011;27435;48.480;9.258;2023-11-22T07:48:09;13.97;;;6.37;;
41755;SDS011;27435;48.480;9.258;2023-11-22T07:50:37;13.80;;;7.30;;
41755;SDS011;27435;48.480;9.258;2023-11-22T07:53:04;13.33;;;6.77;;
41755;SDS011;27435;48.480;9.258;2023-11-22T07:55:30;11.97;;;6.63;;
41755;SDS011;27435;48.480;9.258;2023-11-22T07:57:56;11.77;;;6.77;;
41755;SDS011;27435;48.480;9.258;2023-11-22T08:00:22;13.97;;;6.50;;
41755;SDS011;27435;48.480;9.258;2023-11-22T08:02:48;12.70;;;6.63;;
41755;SDS011;27435;48.480;9.258;2023-11-22T08:05:14;15.23;;;6.97;;
41755;SDS011;27435;48.480;9.258;2023-11-22T08:07:41;15.37;;;7.00;;
41755;SDS011;27435;48.480;9.258;2023-11-22T08:10:09;14.43;;;6.63;;
41755;SDS011;27435;48.480;9.258;2023-11-22T08:12:42;17.63;;;9.47;;
41755;SDS011;27435;48.480;9.258;2023-11-22T08:15:09;24.83;;;13.27;;
41755;SDS011;27435;48.480;9.258;2023-11-22T08:17:38;16.60;;;7.43;;
41755;SDS011;27435;48.480;9.258;2023-11-22T08:20:05;12.20;;;7.10;;
41755;SDS011;27435;48.480;9.258;2023-11-22T08:22:32;12.70;;;7.50;;
41755;SDS011;27435;48.480;9.258;2023-11-22T08:25:00;14.57;;;7.80;;
41755;SDS011;27435;48.480;9.258;2023-11-22T08:27:28;16.03;;;8.70;;
41755;SDS011;27435;48.480;9.258;2023-11-22T08:29:54;15.37;;;9.07;;
41755;SDS011;27435;48.480;9.258;2023-11-22T08:32:19;12.30;;;5.97;;
41755;SDS011;27435;48.480;9.258;2023-11-22T08:34:48;15.07;;;6.50;;
41755;SDS011;27435;48.480;9.258;2023-11-22T08:37:14;20.37;;;13.73;;
41755;SDS011;27435;48.480;9.258;2023-11-22T08:39:40;13.67;;;6.20;;
41755;SDS011;27435;48.480;9.258;2023-11-22T08:42:06;12.63;;;7.00;;
41755;SDS011;27435;48.480;9.258;2023-11-22T08:44:37;12.63;;;6.30;;
41755;SDS011;27435;48.480;9.258;2023-11-22T08:47:03;11.13;;;5.50;;
41755;SDS011;27435;48.480;9.258;2023-11-22T08:49:29;17.07;;;9.97;;
41755;SDS011;27435;48.480;9.258;2023-11-22T08:51:55;10.63;;;6.00;;
41755;SDS011;27435;48.480;9.258;2023-11-22T08:54:21;12.60;;;6.13;;
41755;SDS011;27435;48.480;9.258;2023-11-22T08:56:47;11.83;;;5.80;;
41755;SDS011;27435;48.480;9.258;2023-11-22T08:59:13;9.90;;;5.47;;
41755;SDS011;27435;48.480;9.258;2023-11-22T09:01:41;15.10;;;8.77;;
41755;SDS011;27435;48.480;9.258;2023-11-22T09:04:10;11.87;;;6.07;;
41755;SDS011;27435;48.480;9.258;2023-11-22T09:06:36;11.20;;;6.40;;
41755;SDS011;27435;48.480;9.258;2023-11-22T09:09:02;8.40;;;4.90;;
41755;SDS011;27435;48.480;9.258;2023-11-22T09:11:28;11.80;;;5.80;;
41755;SDS011;27435;48.480;9.258;2023-11-22T09:13:54;10.77;;;5.43;;
41755;SDS011;27435;48.480;9.258;2023-11-22T09:16:22;8.83;;;4.87;;
41755;SDS011;27435;48.480;9.258;2023-11-22T09:18:50;10.97;;;5.33;;
41755;SDS011;27435;48.480;9.258;2023-11-22T09:21:16;11.17;;;5.63;;
41755;SDS011;27435;48.480;9.258;2023-11-22T09:23:42;8.87;;;4.90;;
41755;SDS011;27435;48.480;9.258;2023-11-22T09:26:09;8.30;;;4.60;;
41755;SDS011;27435;48.480;9.258;2023-11-22T09:28:34;9.10;;;4.90;;
41755;SDS011;27435;48.480;9.258;2023-11-22T09:31:01;8.17;;;4.23;;
41755;SDS011;27435;48.480;9.258;2023-11-22T09:33:31;10.00;;;5.20;;
41755;SDS011;27435;48.480;9.258;2023-11-22T09:35:57;9.73;;;5.23;;
41755;SDS011;27435;48.480;9.258;2023-11-22T09:38:23;11.10;;;5.93;;
41755;SDS011;27435;48.480;9.258;2023-11-22T09:40:49;8.20;;;4.83;;
41755;SDS011;27435;48.480;9.258;2023-11-22T09:43:15;8.40;;;5.50;;
41755;SDS011;27435;48.480;9.258;2023-11-22T09:45:45;10.80;;;5.27;;
41755;SDS011;27435;48.480;9.258;2023-11-22T09:48:15;13.37;;;5.50;;
41755;SDS011;27435;48.480;9.258;2023-11-22T09:53:40;8.10;;;5.40;;
41755;SDS011;27435;48.480;9.258;2023-11-22T09:56:08;9.77;;;5.90;;
41755;SDS011;27435;48.480;9.258;2023-11-22T09:58:39;9.23;;;5.43;;
41755;SDS011;27435;48.480;9.258;2023-11-22T10:01:10;10.67;;;5.57;;
41755;SDS011;27435;48.480;9.258;2023-11-22T10:03:38;11.23;;;5.50;;
41755;SDS011;27435;48.480;9.258;2023-11-22T10:06:04;10.07;;;5.13;;
41755;SDS011;27435;48.480;9.258;2023-11-22T10:08:30;13.00;;;5.47;;
41755;SDS011;27435;48.480;9.258;2023-11-22T10:10:57;12.20;;;5.70;;
41755;SDS011;27435;48.480;9.258;2023-11-22T10:13:24;11.20;;;6.17;;
41755;SDS011;27435;48.480;9.258;2023-11-22T10:15:50;10.57;;;5.60;;
41755;SDS011;27435;48.480;9.258;2023-11-22T10:18:20;13.23;;;5.63;;
41755;SDS011;27435;48.480;9.258;2023-11-22T10:20:47;10.63;;;6.03;;
41755;SDS011;27435;48.480;9.258;2023-11-22T10:23:17;18.83;;;5.47;;
41755;SDS011;27435;48.480;9.258;2023-11-22T10:25:45;11.23;;;5.70;;
41755;SDS011;27435;48.480;9.258;2023-11-22T10:28:16;9.30;;;5.13;;
41755;SDS011;27435;48.480;9.258;2023-11-22T10:30:46;9.90;;;5.80;;
41755;SDS011;27435;48.480;9.258;2023-11-22T10:33:13;9.67;;;5.40;;
41755;SDS011;27435;48.480;9.258;2023-11-22T10:35:43;9.50;;;5.23;;
41755;SDS011;27435;48.480;9.258;2023-11-22T10:38:09;9.37;;;5.40;;
41755;SDS011;27435;48.480;9.258;2023-11-22T10:40:36;12.67;;;5.83;;
41755;SDS011;27435;48.480;9.258;2023-11-22T10:43:02;11.07;;;5.77;;
41755;SDS011;27435;48.480;9.258;2023-11-22T10:45:29;10.87;;;5.97;;
41755;SDS011;27435;48.480;9.258;2023-11-22T10:47:56;11.63;;;6.17;;
41755;SDS011;27435;48.480;9.258;2023-11-22T10:50:23;11.00;;;6.23;;
41755;SDS011;27435;48.480;9.258;2023-11-22T10:52:48;46.60;;;17.27;;
41755;SDS011;27435;48.480;9.258;2023-11-22T10:55:20;14.07;;;7.77;;
41755;SDS011;27435;48.480;9.258;2023-11-22T10:57:47;91.37;;;44.20;;
41755;SDS011;27435;48.480;9.258;2023-11-22T11:00:16;20.53;;;9.90;;
41755;SDS011;27435;48.480;9.258;2023-11-22T11:02:47;9.67;;;5.47;;
41755;SDS011;27435;48.480;9.258;2023-11-22T11:05:20;9.57;;;5.13;;
41755;SDS011;27435;48.480;9.258;2023-11-22T11:08:14;9.67;;;5.30;;
41755;SDS011;27435;48.480;9.258;2023-11-22T11:10:43;9.90;;;5.50;;
41755;SDS011;27435;48.480;9.258;2023-11-22T11:13:10;10.67;;;5.47;;
41755;SDS011;27435;48.480;9.258;2023-11-22T11:15:37;10.07;;;5.57;;
41755;SDS011;27435;48.480;9.258;2023-11-22T11:18:04;11.07;;;5.23;;
41755;SDS011;27435;48.480;9.258;2023-11-22T11:23:17;11.82;;;5.55;;
41755;SDS011;27435;48.480;9.258;2023-11-22T11:25:47;10.43;;;5.80;;
41755;SDS011;27435;48.480;9.258;2023-11-22T11:28:14;10.23;;;5.10;;
41755;SDS011;27435;48.480;9.258;2023-11-22T11:30:43;12.17;;;6.60;;
41755;SDS011;27435;48.480;9.258;2023-11-22T11:33:14;14.93;;;5.50;;
41755;SDS011;27435;48.480;9.258;2023-11-22T11:35:48;8.27;;;4.80;;
41755;SDS011;27435;48.480;9.258;2023-11-22T11:38:14;8.60;;;4.93;;
41755;SDS011;27435;48.480;9.258;2023-11-22T11:40:43;10.63;;;5.90;;
41755;SDS011;27435;48.480;9.258;2023-11-22T11:43:11;13.10;;;5.50;;
41755;SDS011;27435;48.480;9.258;2023-11-22T11:45:41;11.17;;;6.10;;
41755;SDS011;27435;48.480;9.258;2023-11-22T11:48:14;10.10;;;5.67;;
41755;SDS011;27435;48.480;9.258;2023-11-22T11:50:41;10.20;;;5.83;;
41755;SDS011;27435;48.480;9.258;2023-11-22T11:53:08;10.53;;;6.17;;
41755;SDS011;27435;48.480;9.258;2023-11-22T11:55:35;9.83;;;5.50;;
41755;SDS011;27435;48.480;9.258;2023-11-22T11:58:04;12.57;;;6.00;;
41755;SDS011;27435;48.480;9.258;2023-11-22T12:00:34;15.47;;;5.90;;
41755;SDS011;27435;48.480;9.258;2023-11-22T12:03:08;12.93;;;6.17;;
41755;SDS011;27435;48.480;9.258;2023-11-22T12:05:35;10.33;;;6.00;;
41755;SDS011;27435;48.480;9.258;2023-11-22T12:08:01;9.77;;;6.07;;
41755;SDS011;27435;48.480;9.258;2023-11-22T12:10:28;11.13;;;6.40;;
41755;SDS011;27435;48.480;9.258;2023-11-22T12:12:54;13.37;;;6.73;;
41755;SDS011;27435;48.480;9.258;2023-11-22T12:15:40;12.00;;;6.40;;
41755;SDS011;27435;48.480;9.258;2023-11-22T12:18:27;13.23;;;6.93;;
41755;SDS011;27435;48.480;9.258;2023-11-22T12:21:18;13.90;;;7.13;;
41755;SDS011;27435;48.480;9.258;2023-11-22T12:27:38;10.80;;;6.30;;
41755;SDS011;27435;48.480;9.258;2023-11-22T12:30:08;11.60;;;6.43;;
41755;SDS011;27435;48.480;9.258;2023-11-22T12:32:39;13.73;;;6.93;;
41755;SDS011;27435;48.480;9.258;2023-11-22T12:35:07;10.63;;;6.40;;
41755;SDS011;27435;48.480;9.258;2023-11-22T12:37:40;13.60;;;7.20;;
41755;SDS011;27435;48.480;9.258;2023-11-22T12:40:09;14.77;;;7.30;;
41755;SDS011;27435;48.480;9.258;2023-11-22T12:42:45;14.30;;;6.93;;
41755;SDS011;27435;48.480;9.258;2023-11-22T12:45:21;14.50;;;7.73;;
41755;SDS011;27435;48.480;9.258;2023-11-22T12:47:49;11.70;;;7.23;;
41755;SDS011;27435;48.480;9.258;2023-11-22T12:53:09;14.77;;;7.57;;
41755;SDS011;27435;48.480;9.258;2023-11-22T12:55:42;12.87;;;6.70;;
41755;SDS011;27435;48.480;9.258;2023-11-22T12:58:10;14.20;;;8.27;;
41755;SDS011;27435;48.480;9.258;2023-11-22T13:00:37;14.47;;;6.83;;
41755;SDS011;27435;48.480;9.258;2023-11-22T13:03:04;13.47;;;8.23;;
41755;SDS011;27435;48.480;9.258;2023-11-22T13:05:35;13.73;;;7.93;;
41755;SDS011;27435;48.480;9.258;2023-11-22T13:08:02;15.63;;;7.90;;
41755;SDS011;27435;48.480;9.258;2023-11-22T13:10:28;14.23;;;7.97;;
41755;SDS011;27435;48.480;9.258;2023-11-22T13:12:55;17.70;;;7.67;;
41755;SDS011;27435;48.480;9.258;2023-11-22T13:15:21;17.60;;;7.80;;
41755;SDS011;27435;48.480;9.258;2023-11-22T13:17:51;14.40;;;7.40;;
41755;SDS011;27435;48.480;9.258;2023-11-22T13:20:20;12.33;;;6.37;;
41755;SDS011;27435;48.480;9.258;2023-11-22T13:22:51;9.70;;;6.13;;
41755;SDS011;27435;48.480;9.258;2023-11-22T13:25:20;14.83;;;7.57;;
41755;SDS011;27435;48.480;9.258;2023-11-22T13:27:48;10.53;;;6.20;;
41755;SDS011;27435;48.480;9.258;2023-11-22T13:30:18;14.87;;;7.73;;
41755;SDS011;27435;48.480;9.258;2023-11-22T13:32:48;15.20;;;7.60;;
41755;SDS011;27435;48.480;9.258;2023-11-22T13:35:14;13.50;;;7.43;;
41755;SDS011;27435;48.480;9.258;2023-11-22T13:37:42;16.53;;;7.83;;
41755;SDS011;27435;48.480;9.258;2023-11-22T13:40:11;15.73;;;7.30;;
41755;SDS011;27435;48.480;9.258;2023-11-22T13:42:44;11.97;;;6.27;;
41755;SDS011;27435;48.480;9.258;2023-11-22T13:45:13;12.87;;;7.17;;
41755;SDS011;27435;48.480;9.258;2023-11-22T13:47:49;11.67;;;7.00;;
41755;SDS011;27435;48.480;9.258;2023-11-22T13:50:20;13.40;;;8.17;;
41755;SDS011;27435;48.480;9.258;2023-11-22T13:52:52;11.87;;;6.80;;
41755;SDS011;27435;48.480;9.258;2023-11-22T13:55:19;16.63;;;6.90;;
41755;SDS011;27435;48.480;9.258;2023-11-22T13:57:48;13.13;;;7.27;;
41755;SDS011;27435;48.480;9.258;2023-11-22T14:00:15;13.23;;;7.27;;
41755;SDS011;27435;48.480;9.258;2023-11-22T14:02:47;13.73;;;6.77;;
41755;SDS011;27435;48.480;9.258;2023-11-22T14:05:17;12.67;;;7.13;;
41755;SDS011;27435;48.480;9.258;2023-11-22T14:07:43;12.47;;;7.00;;
41755;SDS011;27435;48.480;9.258;2023-11-22T14:10:10;11.93;;;6.53;;
41755;SDS011;27435;48.480;9.258;2023-11-22T14:12:36;13.03;;;7.43;;
41755;SDS011;27435;48.480;9.258;2023-11-22T14:15:02;16.87;;;7.43;;
41755;SDS011;27435;48.480;9.258;2023-11-22T14:17:31;14.33;;;6.77;;
41755;SDS011;27435;48.480;9.258;2023-11-22T14:19:57;13.30;;;7.23;;
41755;SDS011;27435;48.480;9.258;2023-11-22T14:22:23;10.37;;;6.37;;
41755;SDS011;27435;48.480;9.258;2023-11-22T14:24:53;13.30;;;6.60;;
41755;SDS011;27435;48.480;9.258;2023-11-22T14:27:19;15.50;;;8.00;;
41755;SDS011;27435;48.480;9.258;2023-11-22T14:29:45;11.33;;;7.07;;
41755;SDS011;27435;48.480;9.258;2023-11-22T14:32:15;11.00;;;5.97;;
41755;SDS011;27435;48.480;9.258;2023-11-22T14:34:42;15.47;;;7.53;;
41755;SDS011;27435;48.480;9.258;2023-11-22T14:37:10;13.60;;;7.27;;
41755;SDS011;27435;48.480;9.258;2023-11-22T14:39:37;12.47;;;7.07;;
41755;SDS011;27435;48.480;9.258;2023-11-22T14:42:03;12.90;;;7.50;;
41755;SDS011;27435;48.480;9.258;2023-11-22T14:44:33;14.43;;;7.23;;
41755;SDS011;27435;48.480;9.258;2023-11-22T14:47:00;12.70;;;7.17;;